createdAt,value
2019-06-26T00:01:13.729Z,99.90
2019-06-26T00:03:44.151Z,99.90
2019-06-26T00:06:14.689Z,99.90
2019-06-26T00:08:45.207Z,99.90
2019-06-26T00:11:18.444Z,99.90
2019-06-26T00:13:48.800Z,99.90
2019-06-26T00:16:19.283Z,99.90
2019-06-26T00:18:49.724Z,99.90
2019-06-26T00:21:22.065Z,99.90
2019-06-26T00:23:52.480Z,99.90
2019-06-26T00:26:22.956Z,99.90
2019-06-26T00:28:59.175Z,99.90
2019-06-26T00:31:29.784Z,99.90
2019-06-26T00:34:00.643Z,99.90
2019-06-26T00:36:32.300Z,99.90
2019-06-26T00:39:03.587Z,99.90
2019-06-26T00:41:34.177Z,99.90
2019-06-26T00:44:04.615Z,99.90
2019-06-26T00:46:35.219Z,99.90
2019-06-26T00:49:05.890Z,99.90
2019-06-26T00:51:36.296Z,99.90
2019-06-26T00:54:06.876Z,99.90
2019-06-26T00:56:37.495Z,99.90
2019-06-26T00:59:07.957Z,99.90
2019-06-26T01:01:38.589Z,99.90
2019-06-26T01:04:13.907Z,99.90
2019-06-26T01:06:44.454Z,99.90
2019-06-26T01:09:16.368Z,99.90
2019-06-26T01:11:46.877Z,99.90
2019-06-26T01:14:19.445Z,99.90
2019-06-26T01:16:49.484Z,99.90
2019-06-26T01:19:20.082Z,99.90
2019-06-26T01:21:50.878Z,99.90
2019-06-26T01:24:21.425Z,99.90
2019-06-26T01:26:51.991Z,99.90
2019-06-26T01:29:22.587Z,99.90
2019-06-26T01:31:53.064Z,99.90
2019-06-26T01:34:23.578Z,99.90
2019-06-26T01:36:54.005Z,99.90
2019-06-26T01:39:24.479Z,99.90
2019-06-26T01:41:55.050Z,99.90
2019-06-26T01:44:25.526Z,99.90
2019-06-26T01:46:56.163Z,99.90
2019-06-26T01:49:26.724Z,99.90
2019-06-26T01:51:57.169Z,99.90
2019-06-26T01:54:27.680Z,99.90
2019-06-26T01:56:58.199Z,99.90
2019-06-26T01:59:28.525Z,99.90
2019-06-26T02:02:17.963Z,99.90
2019-06-26T02:04:48.499Z,99.90
2019-06-26T02:07:19.014Z,99.90
2019-06-26T02:09:49.567Z,99.90
2019-06-26T02:12:19.987Z,99.90
2019-06-26T02:14:50.458Z,99.90
2019-06-26T02:17:20.890Z,99.90
2019-06-26T02:19:51.309Z,99.90
2019-06-26T02:22:21.748Z,99.90
2019-06-26T02:24:52.265Z,99.90
2019-06-26T02:27:22.788Z,99.90
2019-06-26T02:29:53.234Z,99.90
2019-06-26T02:32:23.691Z,99.90
2019-06-26T02:34:54.158Z,99.90
2019-06-26T02:37:24.597Z,99.90
2019-06-26T02:39:55.063Z,99.90
2019-06-26T02:42:25.535Z,99.90
2019-06-26T02:44:55.849Z,99.90
2019-06-26T02:47:26.327Z,99.90
2019-06-26T02:49:56.746Z,99.90
2019-06-26T02:52:27.167Z,99.90
2019-06-26T02:54:57.620Z,99.90
2019-06-26T02:57:28.077Z,99.90
2019-06-26T02:59:58.496Z,99.90
2019-06-26T03:02:28.968Z,99.90
2019-06-26T03:04:59.440Z,99.90
2019-06-26T03:07:29.832Z,99.90
2019-06-26T03:10:00.275Z,99.90
2019-06-26T03:12:30.704Z,99.90
2019-06-26T03:15:08.947Z,99.90
2019-06-26T03:17:33.334Z,99.90
2019-06-26T03:20:03.911Z,99.90
2019-06-26T03:22:34.478Z,99.90
2019-06-26T03:25:05.296Z,99.90
2019-06-26T03:27:35.830Z,99.90
2019-06-26T03:30:07.005Z,99.90
2019-06-26T03:32:37.474Z,99.90
2019-06-26T03:35:08.684Z,99.90
2019-06-26T03:37:39.154Z,99.90
2019-06-26T03:40:11.118Z,99.90
2019-06-26T03:42:41.625Z,99.90
2019-06-26T03:45:25.046Z,99.90
2019-06-26T03:47:45.981Z,99.90
2019-06-26T03:50:17.401Z,99.90
2019-06-26T03:52:47.848Z,99.90
2019-06-26T03:55:18.523Z,99.90
2019-06-26T03:57:48.969Z,99.90
2019-06-26T04:00:30.767Z,99.90
2019-06-26T04:03:01.154Z,99.90
2019-06-26T04:05:31.589Z,99.90
2019-06-26T04:08:02.024Z,99.90
2019-06-26T04:10:32.413Z,99.90
2019-06-26T04:13:02.747Z,99.90
2019-06-26T04:15:42.034Z,99.90
2019-06-26T04:18:05.449Z,99.90
2019-06-26T04:20:35.942Z,99.90
2019-06-26T04:23:06.386Z,99.90
2019-06-26T04:25:38.301Z,99.90
2019-06-26T04:28:08.944Z,99.90
2019-06-26T04:30:39.626Z,99.90
2019-06-26T04:33:10.154Z,99.90
2019-06-26T04:35:40.568Z,99.90
2019-06-26T04:38:11.001Z,99.90
2019-06-26T04:40:41.457Z,99.90
2019-06-26T04:43:11.863Z,99.90
2019-06-26T04:45:57.262Z,99.90
2019-06-26T04:48:14.598Z,99.90
2019-06-26T04:50:44.969Z,99.90
2019-06-26T04:53:15.503Z,99.90
2019-06-26T04:55:45.973Z,99.90
2019-06-26T04:58:16.370Z,99.90
2019-06-26T05:00:46.756Z,99.90
2019-06-26T05:03:17.438Z,99.90
2019-06-26T05:05:47.881Z,99.90
2019-06-26T05:08:18.335Z,99.90
2019-06-26T05:10:48.774Z,99.90
2019-06-26T05:13:19.231Z,99.90
2019-06-26T05:15:49.614Z,99.90
2019-06-26T05:18:20.054Z,99.90
2019-06-26T05:20:50.679Z,99.90
2019-06-26T05:23:21.098Z,99.90
2019-06-26T05:25:51.460Z,99.90
2019-06-26T05:28:21.977Z,99.90
2019-06-26T05:30:52.494Z,99.90
2019-06-26T05:33:23.025Z,99.90
2019-06-26T05:35:53.531Z,99.90
2019-06-26T05:38:23.927Z,99.90
2019-06-26T05:40:54.384Z,99.90
2019-06-26T05:43:24.935Z,99.90
2019-06-26T05:45:55.331Z,99.90
2019-06-26T05:48:25.792Z,99.90
2019-06-26T05:50:56.169Z,99.90
2019-06-26T05:53:26.671Z,99.90
2019-06-26T05:55:57.137Z,99.90
2019-06-26T05:58:27.584Z,99.90
2019-06-26T06:00:58.133Z,99.90
2019-06-26T06:03:28.569Z,99.90
2019-06-26T06:05:59.075Z,99.90
2019-06-26T06:08:29.471Z,99.90
2019-06-26T06:10:59.940Z,99.90
2019-06-26T06:13:30.356Z,99.90
2019-06-26T06:16:00.830Z,99.90
2019-06-26T06:18:31.285Z,99.90
2019-06-26T06:21:03.500Z,99.90
2019-06-26T06:23:33.793Z,99.90
2019-06-26T06:26:23.384Z,99.90
2019-06-26T06:28:53.886Z,99.90
2019-06-26T06:31:24.349Z,99.90
2019-06-26T06:33:54.733Z,99.90
2019-06-26T06:36:25.150Z,99.90
2019-06-26T06:38:55.510Z,99.90
2019-06-26T06:41:25.888Z,99.90
2019-06-26T06:43:56.239Z,99.90
2019-06-26T06:46:26.701Z,99.90
2019-06-26T06:48:57.143Z,99.90
2019-06-26T06:51:27.567Z,99.90
2019-06-26T06:53:57.989Z,99.90
2019-06-26T06:56:28.441Z,99.90
2019-06-26T06:58:58.917Z,99.90
2019-06-26T07:01:29.415Z,99.90
2019-06-26T07:03:59.908Z,99.90
2019-06-26T07:06:30.365Z,99.90
2019-06-26T07:09:00.811Z,99.90
2019-06-26T07:11:31.167Z,99.90
2019-06-26T07:14:01.740Z,99.90
2019-06-26T07:16:32.210Z,99.90
2019-06-26T07:19:02.702Z,99.90
2019-06-26T07:21:33.262Z,99.90
2019-06-26T07:24:03.588Z,99.90
2019-06-26T07:26:34.013Z,99.90
2019-06-26T07:29:04.388Z,99.90
2019-06-26T07:31:38.359Z,99.90
2019-06-26T07:34:07.164Z,99.90
2019-06-26T07:36:37.724Z,99.90
2019-06-26T07:39:08.650Z,99.90
2019-06-26T07:41:39.127Z,99.90
2019-06-26T07:44:09.657Z,99.90
2019-06-26T07:46:40.071Z,99.90
2019-06-26T07:49:10.780Z,99.90
2019-06-26T07:51:41.255Z,99.90
2019-06-26T07:54:12.346Z,99.90
2019-06-26T07:56:42.796Z,99.90
2019-06-26T07:59:13.280Z,99.90
2019-06-26T08:01:43.687Z,99.90
2019-06-26T08:04:14.190Z,99.90
2019-06-26T08:06:44.701Z,99.90
2019-06-26T08:09:15.258Z,99.90
2019-06-26T08:11:45.688Z,99.90
2019-06-26T08:14:16.180Z,99.90
2019-06-26T08:16:46.660Z,99.90
2019-06-26T08:19:17.137Z,99.90
2019-06-26T08:21:47.522Z,99.90
2019-06-26T08:24:17.999Z,99.90
2019-06-26T08:26:48.511Z,99.90
2019-06-26T08:29:18.893Z,99.90
2019-06-26T08:31:49.413Z,99.90
2019-06-26T08:34:19.911Z,99.90
2019-06-26T08:36:50.980Z,99.90
2019-06-26T08:39:21.623Z,99.90
2019-06-26T08:41:52.132Z,99.90
2019-06-26T08:44:22.705Z,99.90
2019-06-26T08:46:53.157Z,99.90
2019-06-26T08:49:25.937Z,99.90
2019-06-26T08:51:56.560Z,99.90
2019-06-26T08:54:27.074Z,99.90
2019-06-26T08:57:06.443Z,99.90
2019-06-26T08:59:39.271Z,99.90
2019-06-26T09:02:12.775Z,99.90
2019-06-26T09:04:43.343Z,99.90
2019-06-26T09:07:13.818Z,99.90
2019-06-26T09:09:44.474Z,99.90
2019-06-26T09:12:15.097Z,92.80
2019-06-26T09:14:45.563Z,96.30
2019-06-26T09:17:15.889Z,98.20
2019-06-26T09:19:46.453Z,95.80
2019-06-26T09:22:16.950Z,96.00
2019-06-26T09:24:47.345Z,91.70
2019-06-26T09:27:17.695Z,94.60
2019-06-26T09:29:48.254Z,95.90
2019-06-26T09:32:18.691Z,97.80
2019-06-26T09:34:49.062Z,96.20
2019-06-26T09:37:19.520Z,93.70
2019-06-26T09:39:50.163Z,91.80
2019-06-26T09:42:20.466Z,91.40
2019-06-26T09:44:50.961Z,91.50
2019-06-26T09:47:21.375Z,90.40
2019-06-26T09:49:51.849Z,87.70
2019-06-26T09:52:22.296Z,91.60
2019-06-26T09:54:52.772Z,81.00
2019-06-26T09:57:23.210Z,83.20
2019-06-26T09:59:53.674Z,89.60
2019-06-26T10:02:24.144Z,76.30
2019-06-26T10:04:54.709Z,76.00
2019-06-26T10:07:25.162Z,71.50
2019-06-26T10:09:55.615Z,76.40
2019-06-26T10:12:26.571Z,77.50
2019-06-26T10:14:56.998Z,76.10
2019-06-26T10:17:27.484Z,68.50
2019-06-26T10:19:57.966Z,73.00
2019-06-26T10:22:28.410Z,76.00
2019-06-26T10:24:58.810Z,81.60
2019-06-26T10:27:29.399Z,68.40
2019-06-26T10:29:59.929Z,68.60
2019-06-26T10:32:30.355Z,68.30
2019-06-26T10:35:00.790Z,69.60
2019-06-26T10:37:31.225Z,74.90
2019-06-26T10:40:01.695Z,75.00
2019-06-26T10:42:32.202Z,72.10
2019-06-26T10:45:02.719Z,74.40
2019-06-26T10:47:33.191Z,68.70
2019-06-26T10:50:03.686Z,67.00
2019-06-26T10:52:34.265Z,70.00
2019-06-26T10:55:04.707Z,66.00
2019-06-26T10:57:35.209Z,65.10
2019-06-26T11:00:07.150Z,62.10
2019-06-26T11:02:37.703Z,62.00
2019-06-26T11:05:11.030Z,73.00
2019-06-26T11:07:41.630Z,60.60
2019-06-26T11:10:13.581Z,59.40
2019-06-26T11:12:43.959Z,69.00
2019-06-26T11:15:14.939Z,61.10
2019-06-26T11:17:45.694Z,64.90
2019-06-26T11:20:16.324Z,59.50
2019-06-26T11:22:46.886Z,62.40
2019-06-26T11:25:21.103Z,64.10
2019-06-26T11:27:51.571Z,64.60
2019-06-26T11:30:24.319Z,63.70
2019-06-26T11:32:54.830Z,60.20
2019-06-26T11:35:25.322Z,62.40
2019-06-26T11:37:55.798Z,59.30
2019-06-26T11:40:26.847Z,61.50
2019-06-26T11:42:57.393Z,63.30
2019-06-26T11:45:27.953Z,58.90
2019-06-26T11:47:58.504Z,67.00
2019-06-26T11:50:29.109Z,61.90
2019-06-26T11:52:59.587Z,56.00
2019-06-26T11:55:29.994Z,52.50
2019-06-26T11:58:00.513Z,63.00
2019-06-26T12:00:31.401Z,55.10
2019-06-26T12:03:01.915Z,55.00
2019-06-26T12:05:32.355Z,60.70
2019-06-26T12:08:02.812Z,57.20
2019-06-26T12:10:33.289Z,58.60
2019-06-26T12:13:04.374Z,53.30
2019-06-26T12:15:34.960Z,60.40
2019-06-26T12:18:05.318Z,53.90
2019-06-26T12:20:35.869Z,52.90
2019-06-26T12:23:06.266Z,53.90
2019-06-26T12:25:36.766Z,58.80
2019-06-26T12:28:07.599Z,53.50
2019-06-26T12:30:38.053Z,57.30
2019-06-26T12:33:08.524Z,52.80
2019-06-26T12:35:39.008Z,57.00
2019-06-26T12:38:09.501Z,55.00
2019-06-26T12:40:40.053Z,51.70
2019-06-26T12:43:10.535Z,52.80
2019-06-26T12:45:40.995Z,51.10
2019-06-26T12:48:11.627Z,48.20
2019-06-26T12:50:42.150Z,54.00
2019-06-26T12:53:12.640Z,52.20
2019-06-26T12:55:43.136Z,47.00
2019-06-26T12:58:18.102Z,45.00
2019-06-26T13:00:46.482Z,45.80
2019-06-26T13:03:16.952Z,47.20
2019-06-26T13:05:47.510Z,47.80
2019-06-26T13:08:17.993Z,48.60
2019-06-26T13:10:50.339Z,45.00
2019-06-26T13:13:20.683Z,45.10
2019-06-26T13:15:51.481Z,46.40
2019-06-26T13:18:22.033Z,43.80
2019-06-26T13:20:53.794Z,44.70
2019-06-26T13:23:24.446Z,44.00
2019-06-26T13:25:54.915Z,43.80
2019-06-26T13:28:25.601Z,41.90
2019-06-26T13:30:56.014Z,43.80
2019-06-26T13:33:26.518Z,45.10
2019-06-26T13:35:57.069Z,44.70
2019-06-26T13:38:27.497Z,44.20
2019-06-26T13:40:57.982Z,43.80
2019-06-26T13:43:28.429Z,41.90
2019-06-26T13:45:59.065Z,44.10
2019-06-26T13:48:29.514Z,44.80
2019-06-26T13:51:09.497Z,44.50
2019-06-26T13:53:32.458Z,45.50
2019-06-26T13:56:03.323Z,48.70
2019-06-26T13:58:33.868Z,48.60
2019-06-26T14:01:04.450Z,50.90
2019-06-26T14:03:34.933Z,55.50
2019-06-26T14:06:05.408Z,55.20
2019-06-26T14:08:55.097Z,55.90
2019-06-26T14:11:25.651Z,60.40
2019-06-26T14:13:56.298Z,63.70
2019-06-26T14:16:29.838Z,62.60
2019-06-26T14:18:59.298Z,60.30
2019-06-26T14:21:29.767Z,61.90
2019-06-26T14:24:00.308Z,61.40
2019-06-26T14:26:30.656Z,63.40
2019-06-26T14:29:01.084Z,66.40
2019-06-26T14:31:31.631Z,66.80
2019-06-26T14:34:02.080Z,67.50
2019-06-26T14:36:32.508Z,67.20
2019-06-26T14:39:02.921Z,62.30
2019-06-26T14:41:34.137Z,62.10
2019-06-26T14:44:04.577Z,63.40
2019-06-26T14:46:35.041Z,64.10
2019-06-26T14:49:05.624Z,62.20
2019-06-26T14:51:43.946Z,61.30
2019-06-26T14:54:08.658Z,63.60
2019-06-26T14:56:39.167Z,67.00
2019-06-26T14:59:09.569Z,64.70
2019-06-26T15:01:40.112Z,63.50
2019-06-26T15:04:10.525Z,66.90
2019-06-26T15:06:40.937Z,63.00
2019-06-26T15:09:11.509Z,67.20
2019-06-26T15:11:42.016Z,63.10
2019-06-26T15:14:12.516Z,68.40
2019-06-26T15:16:42.957Z,64.40
2019-06-26T15:19:13.418Z,69.70
2019-06-26T15:21:57.408Z,68.80
2019-06-26T15:24:16.424Z,68.90
2019-06-26T15:26:46.911Z,66.50
2019-06-26T15:29:17.270Z,62.70
2019-06-26T15:31:47.754Z,65.10
2019-06-26T15:34:18.321Z,63.50
2019-06-26T15:36:48.795Z,70.10
2019-06-26T15:39:19.426Z,69.50
2019-06-26T15:41:50.055Z,70.60
2019-06-26T15:44:20.535Z,71.60
2019-06-26T15:46:51.040Z,74.30
2019-06-26T15:49:21.406Z,73.10
2019-06-26T15:51:51.744Z,74.60
2019-06-26T15:54:22.563Z,77.50
2019-06-26T15:56:53.121Z,73.70
2019-06-26T15:59:23.591Z,75.10
2019-06-26T16:01:57.095Z,70.40
2019-06-26T16:04:27.657Z,71.70
2019-06-26T16:07:01.176Z,77.70
2019-06-26T16:09:31.635Z,76.10
2019-06-26T16:12:02.254Z,78.80
2019-06-26T16:14:32.766Z,73.70
2019-06-26T16:17:07.884Z,75.50
2019-06-26T16:19:38.306Z,72.50
2019-06-26T16:22:08.833Z,74.10
2019-06-26T16:24:39.227Z,74.00
2019-06-26T16:27:09.654Z,64.10
2019-06-26T16:29:40.217Z,65.80
2019-06-26T16:32:10.645Z,66.60
2019-06-26T16:34:41.183Z,63.80
2019-06-26T16:37:11.623Z,64.20
2019-06-26T16:39:42.089Z,61.50
2019-06-26T16:42:12.598Z,60.50
2019-06-26T16:44:43.045Z,61.50
2019-06-26T16:47:13.466Z,60.40
2019-06-26T16:49:44.785Z,60.10
2019-06-26T16:52:15.240Z,57.50
2019-06-26T16:54:45.714Z,57.50
2019-06-26T16:57:16.195Z,57.50
2019-06-26T16:59:46.762Z,56.00
2019-06-26T17:02:17.191Z,59.80
2019-06-26T17:04:47.637Z,57.90
2019-06-26T17:07:18.137Z,59.10
2019-06-26T17:09:48.515Z,62.20
2019-06-26T17:12:19.010Z,65.30
2019-06-26T17:14:49.359Z,68.50
2019-06-26T17:17:19.825Z,72.80
2019-06-26T17:19:50.287Z,77.20
2019-06-26T17:22:20.712Z,80.00
2019-06-26T17:24:51.155Z,83.40
2019-06-26T17:27:21.614Z,85.30
2019-06-26T17:29:52.112Z,85.60
2019-06-26T17:32:22.518Z,87.60
2019-06-26T17:34:52.900Z,86.60
2019-06-26T17:37:23.406Z,87.90
2019-06-26T17:39:53.882Z,90.40
2019-06-26T17:42:24.325Z,92.10
2019-06-26T17:44:54.708Z,94.40
2019-06-26T17:47:25.188Z,94.40
2019-06-26T17:49:55.574Z,95.80
2019-06-26T17:52:25.960Z,96.70
2019-06-26T17:54:56.449Z,96.30
2019-06-26T17:57:26.883Z,97.80
2019-06-26T17:59:57.456Z,99.90
2019-06-26T18:02:27.733Z,99.90
2019-06-26T18:04:58.182Z,99.90
2019-06-26T18:07:28.543Z,99.90
2019-06-26T18:09:58.994Z,99.90
2019-06-26T18:12:29.402Z,99.90
2019-06-26T18:15:00.033Z,99.90
2019-06-26T18:17:30.487Z,99.90
2019-06-26T18:20:00.970Z,99.90
2019-06-26T18:22:31.462Z,99.90
2019-06-26T18:25:01.868Z,99.90
2019-06-26T18:27:32.267Z,99.90
2019-06-26T18:30:04.202Z,99.90
2019-06-26T18:32:34.822Z,99.90
2019-06-26T18:35:05.531Z,99.90
2019-06-26T18:37:35.994Z,99.90
2019-06-26T18:40:08.197Z,99.90
2019-06-26T18:42:38.924Z,99.90
2019-06-26T18:45:09.508Z,99.90
2019-06-26T18:47:39.895Z,99.90
2019-06-26T18:50:11.136Z,99.90
2019-06-26T18:52:41.640Z,99.90
2019-06-26T18:55:12.178Z,99.90
2019-06-26T18:57:42.740Z,99.90
2019-06-26T19:00:14.598Z,99.90
2019-06-26T19:02:45.028Z,99.90
2019-06-26T19:05:15.586Z,99.90
2019-06-26T19:07:46.041Z,99.90
2019-06-26T19:10:16.416Z,99.90
2019-06-26T19:12:46.762Z,99.90
2019-06-26T19:15:17.185Z,99.90
2019-06-26T19:17:47.678Z,99.90
2019-06-26T19:20:19.617Z,99.90
2019-06-26T19:22:50.100Z,99.90
2019-06-26T19:25:20.654Z,99.90
2019-06-26T19:27:51.118Z,99.90
2019-06-26T19:30:21.599Z,99.90
2019-06-26T19:32:51.963Z,99.90
2019-06-26T19:35:22.427Z,99.90
2019-06-26T19:37:52.927Z,99.90
2019-06-26T19:40:24.295Z,99.90
2019-06-26T19:42:55.254Z,99.90
2019-06-26T19:45:25.915Z,99.90
2019-06-26T19:47:56.390Z,99.90
2019-06-26T19:50:26.866Z,99.90
2019-06-26T19:52:57.386Z,99.90
2019-06-26T19:55:28.160Z,99.90
2019-06-26T19:57:58.628Z,99.90
2019-06-26T20:00:29.519Z,99.90
2019-06-26T20:03:00.013Z,99.90
2019-06-26T20:05:30.879Z,99.90
2019-06-26T20:08:01.429Z,99.90
2019-06-26T20:10:32.081Z,99.90
2019-06-26T20:13:02.914Z,99.90
2019-06-26T20:15:33.678Z,99.90
2019-06-26T20:18:04.618Z,99.90
2019-06-26T20:20:35.226Z,99.90
2019-06-26T20:23:05.900Z,99.90
2019-06-26T20:25:36.264Z,99.90
2019-06-26T20:28:06.938Z,99.90
2019-06-26T20:30:37.432Z,99.90
2019-06-26T20:33:07.856Z,99.90
2019-06-26T20:35:39.001Z,99.90
2019-06-26T20:38:09.625Z,99.90
2019-06-26T20:40:40.154Z,99.90
2019-06-26T20:43:10.699Z,99.90
2019-06-26T20:45:41.270Z,99.90
2019-06-26T20:48:11.747Z,99.90
2019-06-26T20:50:42.226Z,99.90
2019-06-26T20:53:12.727Z,99.90
2019-06-26T20:55:45.246Z,99.90
2019-06-26T20:58:15.774Z,99.90
2019-06-26T21:00:46.191Z,99.90
2019-06-26T21:03:16.706Z,99.90
2019-06-26T21:05:47.245Z,99.90
2019-06-26T21:08:17.829Z,99.90
2019-06-26T21:10:48.420Z,99.90
2019-06-26T21:13:19.071Z,99.90
2019-06-26T21:15:52.804Z,99.90
2019-06-26T21:18:21.789Z,99.90
2019-06-26T21:20:52.320Z,99.90
2019-06-26T21:23:23.681Z,99.90
2019-06-26T21:25:54.294Z,99.90
2019-06-26T21:28:24.700Z,99.90
2019-06-26T21:30:55.222Z,99.90
2019-06-26T21:33:25.754Z,99.90
2019-06-26T21:35:56.989Z,99.90
2019-06-26T21:38:27.608Z,99.90
2019-06-26T21:40:58.133Z,99.90
2019-06-26T21:43:28.519Z,99.90
2019-06-26T21:45:58.972Z,99.90
2019-06-26T21:48:29.443Z,99.90
2019-06-26T21:50:59.882Z,99.90
2019-06-26T21:53:30.448Z,99.90
2019-06-26T21:56:00.861Z,99.90
2019-06-26T21:58:31.248Z,99.90
2019-06-26T22:01:01.745Z,99.90
2019-06-26T22:03:32.685Z,99.90
2019-06-26T22:06:03.098Z,99.90
2019-06-26T22:08:33.796Z,99.90
2019-06-26T22:11:04.633Z,99.90
2019-06-26T22:13:35.056Z,99.90
2019-06-26T22:16:05.663Z,99.90
2019-06-26T22:18:37.303Z,99.90
2019-06-26T22:21:07.730Z,99.90
2019-06-26T22:23:38.109Z,99.90
2019-06-26T22:26:08.606Z,99.90
2019-06-26T22:28:38.936Z,99.90
2019-06-26T22:31:09.381Z,99.90
2019-06-26T22:33:39.884Z,99.90
2019-06-26T22:36:10.326Z,99.90
2019-06-26T22:38:40.843Z,99.90
2019-06-26T22:41:11.217Z,99.90
2019-06-26T22:43:41.601Z,99.90
2019-06-26T22:46:12.122Z,99.90
2019-06-26T22:48:42.483Z,99.90
2019-06-26T22:51:12.900Z,99.90
2019-06-26T22:53:43.287Z,99.90
2019-06-26T22:56:13.761Z,99.90
2019-06-26T22:58:44.263Z,99.90
2019-06-26T23:01:14.700Z,99.90
2019-06-26T23:03:45.199Z,99.90
2019-06-26T23:06:15.643Z,99.90
2019-06-26T23:08:46.103Z,99.90
2019-06-26T23:11:16.405Z,99.90
2019-06-26T23:13:46.852Z,99.90
2019-06-26T23:16:17.275Z,99.90
2019-06-26T23:18:47.782Z,99.90
2019-06-26T23:21:18.097Z,99.90
2019-06-26T23:23:48.574Z,99.90
2019-06-26T23:26:23.875Z,99.90
2019-06-26T23:28:51.202Z,99.90
2019-06-26T23:31:21.639Z,99.90
2019-06-26T23:33:52.106Z,99.90
2019-06-26T23:36:22.613Z,99.90
2019-06-26T23:38:53.096Z,99.90
2019-06-26T23:41:23.503Z,99.90
2019-06-26T23:43:53.969Z,99.90
2019-06-26T23:46:24.477Z,99.90
2019-06-26T23:48:54.910Z,99.90
2019-06-26T23:51:25.388Z,99.90
2019-06-26T23:53:55.868Z,99.90
2019-06-26T23:56:39.608Z,99.90
2019-06-26T23:58:58.480Z,99.90
